Terminal Aerodrome Forecast
Issued by NWS Omaha/Valley, NE

Home | Current Version | Previous Version | Text Only | Print | Product List | Glossary On
Versions: 1 2 3 4 5 6 7 8 9 10 11 12 13 14 15 16 17 18 19
000
FTUS43 KOAX 191738
TAFOFK
TAF
KOFK 191738Z 1918/2018 17013KT P6SM SKC
     FM192300 16009KT P6SM SKC
     FM200400 18012KT P6SM FEW250 WS020/21050KT
     FM201400 17017G28KT P6SM BKN250=

USA.gov is the U.S. government's official web portal to all federal, state and local government web resources and services.